createdAt,value
2018-08-06T00:00:53.107Z,98.03
2018-08-06T00:01:53.014Z,96.98
2018-08-06T00:02:52.922Z,96.32
2018-08-06T00:03:52.829Z,95.65
2018-08-06T00:04:52.763Z,95.27
2018-08-06T00:05:52.645Z,94.70
2018-08-06T00:06:52.553Z,93.65
2018-08-06T00:07:52.459Z,94.22
2018-08-06T00:08:52.373Z,94.51
2018-08-06T00:09:52.304Z,95.70
2018-08-06T00:10:52.190Z,95.41
2018-08-06T00:11:52.094Z,96.46
2018-08-06T00:12:52.001Z,96.27
2018-08-06T00:13:51.913Z,96.66
2018-08-06T00:14:51.842Z,96.27
2018-08-06T00:15:51.728Z,96.56
2018-08-06T00:16:51.636Z,96.94
2018-08-06T00:17:51.543Z,97.03
2018-08-06T00:18:51.452Z,96.94
2018-08-06T00:19:51.384Z,97.23
2018-08-06T00:20:51.269Z,96.66
2018-08-06T00:21:51.176Z,95.65
2018-08-06T00:22:51.105Z,95.27
2018-08-06T00:23:50.994Z,95.84
2018-08-06T00:24:50.924Z,94.89
2018-08-06T00:25:50.810Z,95.46
2018-08-06T00:26:50.718Z,95.17
2018-08-06T00:27:50.623Z,95.27
2018-08-06T00:28:50.532Z,95.17
2018-08-06T00:29:50.441Z,95.08
2018-08-06T00:30:50.373Z,94.89
2018-08-06T00:31:50.259Z,95.56
2018-08-06T00:32:50.177Z,96.70
2018-08-06T00:33:50.074Z,95.65
2018-08-06T00:34:49.981Z,95.84
2018-08-06T00:35:49.908Z,96.03
2018-08-06T00:36:49.797Z,96.46
2018-08-06T00:37:49.990Z,96.27
2018-08-06T00:38:49.613Z,95.98
2018-08-06T00:39:49.522Z,96.56
2018-08-06T00:40:49.451Z,96.27
2018-08-06T00:41:49.337Z,96.46
2018-08-06T00:42:49.246Z,96.42
2018-08-06T00:43:49.154Z,96.75
2018-08-06T00:44:49.187Z,96.61
2018-08-06T00:45:48.993Z,96.61
2018-08-06T00:46:48.877Z,96.42
2018-08-06T00:47:48.791Z,96.22
2018-08-06T00:48:48.692Z,96.42
2018-08-06T00:49:48.602Z,96.42
2018-08-06T00:50:48.532Z,95.46
2018-08-06T00:51:48.417Z,96.32
2018-08-06T00:52:48.326Z,96.70
2018-08-06T00:53:48.252Z,95.46
2018-08-06T00:54:48.139Z,95.56
2018-08-06T00:55:48.073Z,95.56
2018-08-06T00:56:47.955Z,95.84
2018-08-06T00:57:47.864Z,95.56
2018-08-06T00:58:47.771Z,95.65
2018-08-06T00:59:47.681Z,95.41
2018-08-06T01:00:47.610Z,95.79
2018-08-06T01:01:47.500Z,95.12
2018-08-06T01:02:47.404Z,95.22
2018-08-06T01:03:47.327Z,94.84
2018-08-06T01:04:47.223Z,95.32
2018-08-06T01:05:47.153Z,95.03
2018-08-06T01:06:47.037Z,94.84
2018-08-06T01:07:46.950Z,94.46
2018-08-06T01:08:46.855Z,94.74
2018-08-06T01:09:46.759Z,94.84
2018-08-06T01:10:46.689Z,94.46
2018-08-06T01:11:46.579Z,93.98
2018-08-06T01:12:46.489Z,94.07
2018-08-06T01:13:46.390Z,94.17
2018-08-06T01:14:46.301Z,93.79
2018-08-06T01:15:46.227Z,93.88
2018-08-06T01:16:46.112Z,93.60
2018-08-06T01:17:46.025Z,93.31
2018-08-06T01:18:45.930Z,93.12
2018-08-06T01:19:45.929Z,92.93
2018-08-06T01:20:45.748Z,93.12
2018-08-06T01:21:45.680Z,92.93
2018-08-06T01:22:45.563Z,92.83
2018-08-06T01:23:45.471Z,93.22
2018-08-06T01:24:45.375Z,93.22
2018-08-06T01:25:45.286Z,93.60
2018-08-06T01:26:45.215Z,93.12
2018-08-06T01:27:45.103Z,93.22
2018-08-06T01:28:45.011Z,92.26
2018-08-06T01:29:44.917Z,92.65
2018-08-06T01:30:44.823Z,92.46
2018-08-06T01:31:44.752Z,92.46
2018-08-06T01:32:44.641Z,91.21
2018-08-06T01:33:44.636Z,91.31
2018-08-06T01:34:44.460Z,90.93
2018-08-06T01:35:44.362Z,90.45
2018-08-06T01:36:44.295Z,89.45
2018-08-06T01:37:44.178Z,88.50
2018-08-06T01:38:44.090Z,87.35
2018-08-06T01:39:43.992Z,86.11
2018-08-06T01:40:43.988Z,85.97
2018-08-06T01:41:43.830Z,86.06
2018-08-06T01:42:43.723Z,85.77
2018-08-06T01:43:43.624Z,86.35
2018-08-06T01:44:43.551Z,86.63
2018-08-06T01:45:43.470Z,86.82
2018-08-06T01:46:43.367Z,87.02
2018-08-06T01:47:43.349Z,87.40
2018-08-06T01:48:43.163Z,87.21
2018-08-06T01:49:43.071Z,87.49
2018-08-06T01:50:42.977Z,87.87
2018-08-06T01:51:42.906Z,87.11
2018-08-06T01:52:42.792Z,87.45
2018-08-06T01:53:42.702Z,86.69
2018-08-06T01:54:42.705Z,86.40
2018-08-06T01:55:42.512Z,85.83
2018-08-06T01:56:42.425Z,85.25
2018-08-06T01:57:42.352Z,84.40
2018-08-06T01:58:42.236Z,83.92
2018-08-06T01:59:42.144Z,83.87
2018-08-06T02:00:42.053Z,84.16
2018-08-06T02:01:42.059Z,84.72
2018-08-06T02:02:41.889Z,84.63
2018-08-06T02:03:41.775Z,85.58
2018-08-06T02:04:41.683Z,84.69
2018-08-06T02:05:41.589Z,84.40
2018-08-06T02:06:41.500Z,83.64
2018-08-06T02:07:41.424Z,83.87
2018-08-06T02:08:41.403Z,84.16
2018-08-06T02:09:41.217Z,83.39
2018-08-06T02:10:41.128Z,84.34
2018-08-06T02:11:41.037Z,84.53
2018-08-06T02:12:40.962Z,84.25
2018-08-06T02:13:40.845Z,83.87
2018-08-06T02:14:40.756Z,83.77
2018-08-06T02:15:40.768Z,84.34
2018-08-06T02:16:40.569Z,84.44
2018-08-06T02:17:40.496Z,84.92
2018-08-06T02:18:40.384Z,85.58
2018-08-06T02:19:40.294Z,85.30
2018-08-06T02:20:40.201Z,84.44
2018-08-06T02:21:40.105Z,84.49
2018-08-06T02:22:40.131Z,84.44
2018-08-06T02:23:39.921Z,84.25
2018-08-06T02:24:39.834Z,84.11
2018-08-06T02:25:39.752Z,84.40
2018-08-06T02:26:39.643Z,84.30
2018-08-06T02:27:39.572Z,84.20
2018-08-06T02:28:39.458Z,83.83
2018-08-06T02:29:39.459Z,83.83
2018-08-06T02:30:39.275Z,83.83
2018-08-06T02:31:39.181Z,83.73
2018-08-06T02:32:39.108Z,83.64
2018-08-06T02:33:38.997Z,83.44
2018-08-06T02:34:38.903Z,83.54
2018-08-06T02:35:38.812Z,82.40
2018-08-06T02:36:38.816Z,80.87
2018-08-06T02:37:38.644Z,80.11
2018-08-06T02:38:38.533Z,80.11
2018-08-06T02:39:38.436Z,80.49
2018-08-06T02:40:38.346Z,80.43
2018-08-06T02:41:38.252Z,81.67
2018-08-06T02:42:38.182Z,82.63
2018-08-06T02:43:38.159Z,82.43
2018-08-06T02:44:37.977Z,82.53
2018-08-06T02:45:37.881Z,82.53
2018-08-06T02:46:37.788Z,81.58
2018-08-06T02:47:37.700Z,81.67
2018-08-06T02:48:37.624Z,81.67
2018-08-06T02:49:37.509Z,81.67
2018-08-06T02:50:37.415Z,81.58
2018-08-06T02:51:37.327Z,81.58
2018-08-06T02:52:37.232Z,81.29
2018-08-06T02:53:37.162Z,82.34
2018-08-06T02:54:37.044Z,81.67
2018-08-06T02:55:36.955Z,81.58
2018-08-06T02:56:36.861Z,81.58
2018-08-06T02:57:36.771Z,82.24
2018-08-06T02:58:36.697Z,82.91
2018-08-06T02:59:36.583Z,83.11
2018-08-06T03:00:36.490Z,82.24
2018-08-06T03:01:36.398Z,83.01
2018-08-06T03:02:36.307Z,83.67
2018-08-06T03:03:36.234Z,83.39
2018-08-06T03:04:36.119Z,83.48
2018-08-06T03:05:36.026Z,83.20
2018-08-06T03:06:35.933Z,83.20
2018-08-06T03:07:35.841Z,82.87
2018-08-06T03:08:35.772Z,82.59
2018-08-06T03:09:35.656Z,82.11
2018-08-06T03:10:35.563Z,81.54
2018-08-06T03:11:35.469Z,81.92
2018-08-06T03:12:35.379Z,81.06
2018-08-06T03:13:35.307Z,80.58
2018-08-06T03:14:35.191Z,80.39
2018-08-06T03:15:35.098Z,80.20
2018-08-06T03:16:35.005Z,80.30
2018-08-06T03:17:34.917Z,81.10
2018-08-06T03:18:34.848Z,81.58
2018-08-06T03:19:34.725Z,82.34
2018-08-06T03:20:34.636Z,82.43
2018-08-06T03:21:34.543Z,83.58
2018-08-06T03:22:34.447Z,83.39
2018-08-06T03:23:34.379Z,83.67
2018-08-06T03:24:34.264Z,83.67
2018-08-06T03:25:34.167Z,83.67
2018-08-06T03:26:34.073Z,83.96
2018-08-06T03:27:33.985Z,84.06
2018-08-06T03:28:33.914Z,83.67
2018-08-06T03:29:33.843Z,83.87
2018-08-06T03:30:33.708Z,83.87
2018-08-06T03:31:33.613Z,84.16
2018-08-06T03:32:33.521Z,84.06
2018-08-06T03:33:33.426Z,83.77
2018-08-06T03:34:33.355Z,83.67
2018-08-06T03:35:33.240Z,83.48
2018-08-06T03:36:33.164Z,83.83
2018-08-06T03:37:33.052Z,83.58
2018-08-06T03:38:32.965Z,83.77
2018-08-06T03:39:32.894Z,83.20
2018-08-06T03:40:32.776Z,83.39
2018-08-06T03:41:32.688Z,83.67
2018-08-06T03:42:32.593Z,83.39
2018-08-06T03:43:32.497Z,84.06
2018-08-06T03:44:32.427Z,83.58
2018-08-06T03:45:32.313Z,83.77
2018-08-06T03:46:32.238Z,83.87
2018-08-06T03:47:32.127Z,83.77
2018-08-06T03:48:32.032Z,83.87
2018-08-06T03:49:31.961Z,83.87
2018-08-06T03:50:31.852Z,84.06
2018-08-06T03:51:31.757Z,83.77
2018-08-06T03:52:31.666Z,84.16
2018-08-06T03:53:31.570Z,83.58
2018-08-06T03:54:31.500Z,85.11
2018-08-06T03:55:31.387Z,86.25
2018-08-06T03:56:31.292Z,86.35
2018-08-06T03:57:31.211Z,86.63
2018-08-06T03:58:31.105Z,86.25
2018-08-06T03:59:31.037Z,85.49
2018-08-06T04:00:30.922Z,85.87
2018-08-06T04:01:30.826Z,86.06
2018-08-06T04:02:30.737Z,85.39
2018-08-06T04:03:30.642Z,85.21
2018-08-06T04:04:30.572Z,85.97
2018-08-06T04:05:30.456Z,85.21
2018-08-06T04:06:30.458Z,85.21
2018-08-06T04:07:30.272Z,85.83
2018-08-06T04:08:30.181Z,85.54
2018-08-06T04:09:30.109Z,85.54
2018-08-06T04:10:29.992Z,84.69
2018-08-06T04:11:29.901Z,85.35
2018-08-06T04:12:29.811Z,85.93
2018-08-06T04:13:29.729Z,85.49
2018-08-06T04:14:29.646Z,85.30
2018-08-06T04:15:29.532Z,85.68
2018-08-06T04:16:29.438Z,86.25
2018-08-06T04:17:29.345Z,85.77
2018-08-06T04:18:29.249Z,85.68
2018-08-06T04:19:29.163Z,86.63
2018-08-06T04:20:29.181Z,86.82
2018-08-06T04:21:28.972Z,86.35
2018-08-06T04:22:28.880Z,85.87
2018-08-06T04:23:28.787Z,86.44
2018-08-06T04:24:28.698Z,85.87
2018-08-06T04:25:28.623Z,86.06
2018-08-06T04:26:28.511Z,85.77
2018-08-06T04:27:28.419Z,85.11
2018-08-06T04:28:28.323Z,85.58
2018-08-06T04:29:28.229Z,85.49
2018-08-06T04:30:28.161Z,85.68
2018-08-06T04:31:28.046Z,85.97
2018-08-06T04:32:27.955Z,85.49
2018-08-06T04:33:27.863Z,85.49
2018-08-06T04:34:27.863Z,85.39
2018-08-06T04:35:27.703Z,85.21
2018-08-06T04:36:27.583Z,85.58
2018-08-06T04:37:27.488Z,85.58
2018-08-06T04:38:27.428Z,84.72
2018-08-06T04:39:27.304Z,85.58
2018-08-06T04:40:27.236Z,86.06
2018-08-06T04:41:27.206Z,85.58
2018-08-06T04:42:27.029Z,85.30
2018-08-06T04:43:26.934Z,85.11
2018-08-06T04:44:26.843Z,85.11
2018-08-06T04:45:26.770Z,85.49
2018-08-06T04:46:26.655Z,85.68
2018-08-06T04:47:26.563Z,85.15
2018-08-06T04:48:26.577Z,86.30
2018-08-06T04:49:26.378Z,86.39
2018-08-06T04:50:26.308Z,86.43
2018-08-06T04:51:26.194Z,88.77
2018-08-06T04:52:26.104Z,92.02
2018-08-06T04:53:26.009Z,95.46
2018-08-06T04:54:25.919Z,97.18
2018-08-06T04:55:25.942Z,98.71
2018-08-06T04:56:25.734Z,99.99
2018-08-06T04:57:25.643Z,99.76
2018-08-06T04:58:25.550Z,99.99
2018-08-06T04:59:25.461Z,99.99
2018-08-06T05:00:25.367Z,99.99
2018-08-06T05:01:25.297Z,99.99
2018-08-06T05:02:25.281Z,99.99
2018-08-06T05:03:25.095Z,99.99
2018-08-06T05:04:25.003Z,99.99
2018-08-06T05:05:24.932Z,99.99
2018-08-06T05:06:24.823Z,99.99
2018-08-06T05:07:24.728Z,99.99
2018-08-06T05:08:24.637Z,99.99
2018-08-06T05:09:24.633Z,99.99
2018-08-06T05:10:24.457Z,99.99
2018-08-06T05:11:24.388Z,99.99
2018-08-06T05:12:24.274Z,99.99
2018-08-06T05:13:24.184Z,99.99
2018-08-06T05:14:24.089Z,99.99
2018-08-06T05:15:24.001Z,99.99
2018-08-06T05:16:24.027Z,99.99
2018-08-06T05:17:23.818Z,99.99
2018-08-06T05:18:23.733Z,99.99
2018-08-06T05:19:23.707Z,99.99
2018-08-06T05:20:23.550Z,99.99
2018-08-06T05:21:23.481Z,99.99
2018-08-06T05:22:23.367Z,99.99
2018-08-06T05:23:23.372Z,99.99
2018-08-06T05:24:23.193Z,99.99
2018-08-06T05:25:23.095Z,99.99
2018-08-06T05:26:23.027Z,99.99
2018-08-06T05:27:22.913Z,99.99
2018-08-06T05:28:22.822Z,99.99
2018-08-06T05:29:22.736Z,99.99
2018-08-06T05:30:22.645Z,99.99
2018-08-06T05:31:22.640Z,99.99
2018-08-06T05:32:22.463Z,99.99
2018-08-06T05:33:22.373Z,99.99
2018-08-06T05:34:22.280Z,99.99
2018-08-06T05:35:22.194Z,99.99
2018-08-06T05:36:22.122Z,99.99
2018-08-06T05:37:22.012Z,99.99
2018-08-06T05:38:21.924Z,99.99
2018-08-06T05:39:21.831Z,99.99
2018-08-06T05:40:21.746Z,99.99
2018-08-06T05:41:21.687Z,99.99
2018-08-06T05:42:21.566Z,99.99
2018-08-06T05:43:21.472Z,99.99
2018-08-06T05:44:21.395Z,99.99
2018-08-06T05:45:21.293Z,99.99
2018-08-06T05:46:21.225Z,99.99
2018-08-06T05:47:21.114Z,99.99
2018-08-06T05:48:21.070Z,99.99
2018-08-06T05:49:20.932Z,99.99
2018-08-06T05:50:20.854Z,99.99
2018-08-06T05:51:20.752Z,99.99
2018-08-06T05:52:20.689Z,99.99
2018-08-06T05:53:20.571Z,99.99
2018-08-06T05:54:20.480Z,99.99
2018-08-06T05:55:20.394Z,99.99
2018-08-06T05:56:20.304Z,99.99
2018-08-06T05:57:20.233Z,99.99
2018-08-06T05:58:20.140Z,99.99
2018-08-06T05:59:20.033Z,98.96
2018-08-06T06:00:19.949Z,98.96
2018-08-06T06:01:19.856Z,99.87
2018-08-06T06:02:19.786Z,97.47
2018-08-06T06:03:19.689Z,95.84
2018-08-06T06:04:19.588Z,95.75
2018-08-06T06:05:19.499Z,98.72
2018-08-06T06:06:19.410Z,96.70
2018-08-06T06:07:19.345Z,95.55
2018-08-06T06:08:19.230Z,95.26
2018-08-06T06:09:19.144Z,95.21
2018-08-06T06:10:19.052Z,95.89
2018-08-06T06:11:18.961Z,94.06
2018-08-06T06:12:18.902Z,94.98
2018-08-06T06:17:13.598Z,93.24
2018-08-06T06:18:13.716Z,92.96
2018-08-06T06:19:13.448Z,93.15
2018-08-06T06:20:13.313Z,92.72
2018-08-06T06:21:13.223Z,92.67
2018-08-06T06:22:13.149Z,92.57
2018-08-06T06:23:13.045Z,94.30
2018-08-06T06:24:12.957Z,92.86
2018-08-06T06:25:12.871Z,92.47
2018-08-06T06:26:12.779Z,91.61
2018-08-06T06:27:12.707Z,92.29
2018-08-06T06:28:12.603Z,92.57
2018-08-06T06:29:12.513Z,92.19
2018-08-06T06:30:12.529Z,92.38
2018-08-06T06:31:12.348Z,90.65
2018-08-06T06:32:12.262Z,91.42
2018-08-06T06:33:12.164Z,92.19
2018-08-06T06:34:12.074Z,91.22
2018-08-06T06:35:11.984Z,92.38
2018-08-06T06:36:11.896Z,91.99
2018-08-06T06:37:11.919Z,92.67
2018-08-06T06:38:11.740Z,91.90
2018-08-06T06:39:11.629Z,92.52
2018-08-06T06:40:11.542Z,90.65
2018-08-06T06:41:11.454Z,90.98
2018-08-06T06:42:11.364Z,90.31
2018-08-06T06:43:11.295Z,91.46
2018-08-06T06:44:11.292Z,91.46
2018-08-06T06:45:11.106Z,89.54
2018-08-06T06:46:11.012Z,89.06
2018-08-06T06:47:10.926Z,89.20
2018-08-06T06:48:10.851Z,88.33
2018-08-06T06:49:10.769Z,88.18
2018-08-06T06:50:10.661Z,86.65
2018-08-06T06:51:10.572Z,85.91
2018-08-06T06:52:10.490Z,84.38
2018-08-06T06:53:10.410Z,84.80
2018-08-06T06:54:10.311Z,84.46
2018-08-06T06:55:10.222Z,81.76
2018-08-06T06:56:10.135Z,83.05
2018-08-06T06:57:10.048Z,80.74
2018-08-06T06:58:10.079Z,79.81
2018-08-06T06:59:09.875Z,79.75
2018-08-06T07:00:09.797Z,80.30
2018-08-06T07:01:09.701Z,80.00
2018-08-06T07:02:09.614Z,79.62
2018-08-06T07:03:09.544Z,78.56
2018-08-06T07:04:09.570Z,78.69
2018-08-06T07:05:09.357Z,78.31
2018-08-06T07:06:09.272Z,77.63
2018-08-06T07:07:09.188Z,77.73
2018-08-06T07:08:09.119Z,77.73
2018-08-06T07:09:09.019Z,77.73
2018-08-06T07:10:08.935Z,77.86
2018-08-06T07:11:08.851Z,77.53
2018-08-06T07:12:08.765Z,78.34
2018-08-06T07:13:08.695Z,77.96
2018-08-06T07:14:08.675Z,78.83
2018-08-06T07:15:08.513Z,78.44
2018-08-06T07:16:08.432Z,77.48
2018-08-06T07:17:08.352Z,77.76
2018-08-06T07:18:08.281Z,78.25
2018-08-06T07:19:08.201Z,78.19
2018-08-06T07:20:08.106Z,74.85
2018-08-06T07:21:08.013Z,73.53
2018-08-06T07:22:07.934Z,74.01
2018-08-06T07:23:07.849Z,72.91
2018-08-06T07:24:07.779Z,72.72
2018-08-06T07:25:07.684Z,73.46
2018-08-06T07:26:07.677Z,73.78
2018-08-06T07:27:07.519Z,73.91
2018-08-06T07:28:07.443Z,72.11
2018-08-06T07:29:07.368Z,70.95
2018-08-06T07:30:07.281Z,71.44
2018-08-06T07:31:07.189Z,71.92
2018-08-06T07:32:07.107Z,71.69
2018-08-06T07:33:07.026Z,71.88
2018-08-06T07:34:06.959Z,71.72
2018-08-06T07:35:06.864Z,70.43
2018-08-06T07:36:06.782Z,71.59
2018-08-06T07:37:06.702Z,71.34
2018-08-06T07:38:06.619Z,71.34
2018-08-06T07:39:06.554Z,70.70
2018-08-06T07:40:06.467Z,71.76
2018-08-06T07:41:06.375Z,70.54
2018-08-06T07:42:06.294Z,70.21
2018-08-06T07:43:06.232Z,71.72
2018-08-06T07:44:06.151Z,70.70
2018-08-06T07:45:06.052Z,70.98
2018-08-06T07:46:05.972Z,72.67
2018-08-06T07:47:05.912Z,71.06
2018-08-06T07:48:05.810Z,69.34
2018-08-06T07:49:05.744Z,70.18
2018-08-06T07:50:05.648Z,71.53
2018-08-06T07:51:05.568Z,73.24
2018-08-06T07:52:05.507Z,73.11
2018-08-06T07:53:05.408Z,72.44
2018-08-06T07:54:05.343Z,71.14
2018-08-06T07:55:05.249Z,72.11
2018-08-06T07:56:05.164Z,73.60
2018-08-06T07:57:05.085Z,70.92
2018-08-06T07:58:05.005Z,69.85
2018-08-06T07:59:04.939Z,68.12
2018-08-06T08:00:04.848Z,65.34
2018-08-06T08:01:04.763Z,65.63
2018-08-06T08:02:04.684Z,67.92
2018-08-06T08:03:04.601Z,68.82
2018-08-06T08:04:04.525Z,66.95
2018-08-06T08:05:04.454Z,66.82
2018-08-06T08:06:04.360Z,66.99
2018-08-06T08:07:04.283Z,66.99
2018-08-06T08:08:04.206Z,67.63
2018-08-06T08:09:04.123Z,67.88
2018-08-06T08:10:04.057Z,68.82
2018-08-06T08:11:03.960Z,67.69
2018-08-06T08:12:03.920Z,67.79
2018-08-06T08:13:03.817Z,68.60
2018-08-06T08:14:03.718Z,67.44
2018-08-06T08:15:03.654Z,66.95
2018-08-06T08:16:03.559Z,68.21
2018-08-06T08:17:03.478Z,67.53
2018-08-06T08:18:03.398Z,67.21
2018-08-06T08:19:03.318Z,68.08
2018-08-06T08:20:03.317Z,67.98
2018-08-06T08:21:03.261Z,67.34
2018-08-06T08:22:03.078Z,66.99
2018-08-06T08:23:02.997Z,67.44
2018-08-06T08:24:02.918Z,68.12
2018-08-06T08:25:02.851Z,67.18
2018-08-06T08:26:02.756Z,65.72
2018-08-06T08:27:02.691Z,67.27
2018-08-06T08:28:02.696Z,68.73
2018-08-06T08:29:02.515Z,68.33
2018-08-06T08:30:02.454Z,67.24
2018-08-06T08:31:02.360Z,66.14
2018-08-06T08:32:02.276Z,65.66
2018-08-06T08:33:02.197Z,66.56
2018-08-06T08:34:02.169Z,64.07
2018-08-06T08:35:02.162Z,63.26
2018-08-06T08:36:01.957Z,65.43
2018-08-06T08:37:01.878Z,64.01
2018-08-06T08:38:01.801Z,63.43
2018-08-06T08:39:01.716Z,62.49
2018-08-06T08:40:01.652Z,61.77
2018-08-06T08:41:01.561Z,63.29
2018-08-06T08:42:01.592Z,63.46
2018-08-06T08:43:01.397Z,60.38
2018-08-06T08:44:01.318Z,61.68
2018-08-06T08:45:01.256Z,63.23
2018-08-06T08:46:01.159Z,61.71
2018-08-06T08:47:01.080Z,60.25
2018-08-06T08:48:01.000Z,60.54
2018-08-06T08:49:01.023Z,59.54
2018-08-06T08:50:00.848Z,60.19
2018-08-06T08:51:00.776Z,61.77
2018-08-06T08:52:00.683Z,60.61
2018-08-06T08:53:00.604Z,61.74
2018-08-06T08:54:00.526Z,61.65
2018-08-06T08:55:00.447Z,59.86
2018-08-06T08:56:00.488Z,60.35
2018-08-06T08:57:00.286Z,58.59
2018-08-06T08:58:00.211Z,59.54
2018-08-06T08:59:00.303Z,59.54
2018-08-06T09:00:00.065Z,59.67
2018-08-06T09:00:59.985Z,58.98
2018-08-06T09:01:59.906Z,58.62
2018-08-06T09:02:59.923Z,60.60
2018-08-06T09:03:59.734Z,58.97
2018-08-06T09:04:59.655Z,57.84
2018-08-06T09:05:59.591Z,55.54
2018-08-06T09:06:59.499Z,56.03
2018-08-06T09:07:59.419Z,57.51
2018-08-06T09:08:59.343Z,58.20
2018-08-06T09:09:59.364Z,55.18
2018-08-06T09:10:59.198Z,55.47
2018-08-06T09:11:59.106Z,55.69
2018-08-06T09:12:59.026Z,56.09
2018-08-06T09:13:59.024Z,55.57
2018-08-06T09:14:58.874Z,55.18
2018-08-06T09:15:58.809Z,53.77
2018-08-06T09:16:58.851Z,54.02
2018-08-06T09:17:58.635Z,51.85
2018-08-06T09:18:58.557Z,51.17
2018-08-06T09:19:58.480Z,50.19
2018-08-06T09:20:58.416Z,50.56
2018-08-06T09:21:58.331Z,52.45
2018-08-06T09:22:58.245Z,51.77
2018-08-06T09:23:58.171Z,52.60
2018-08-06T09:24:58.091Z,51.14
2018-08-06T09:25:58.027Z,54.06
2018-08-06T09:26:57.933Z,51.82
2018-08-06T09:27:57.859Z,51.14
2018-08-06T09:28:57.779Z,51.31
2018-08-06T09:29:57.702Z,52.55
2018-08-06T09:30:57.639Z,53.26
2018-08-06T09:31:57.585Z,52.31
2018-08-06T09:32:57.467Z,50.68
2018-08-06T09:33:57.423Z,50.60
2018-08-06T09:34:57.312Z,50.19
2018-08-06T09:35:57.251Z,49.71
2018-08-06T09:36:57.158Z,51.04
2018-08-06T09:37:57.090Z,51.80
2018-08-06T09:38:57.006Z,50.21
2018-08-06T09:39:56.926Z,50.99
2018-08-06T09:40:56.851Z,49.76
2018-08-06T09:41:56.786Z,47.98
2018-08-06T09:42:56.695Z,49.19
2018-08-06T09:43:56.618Z,51.21
2018-08-06T09:44:56.540Z,49.71
2018-08-06T09:45:56.561Z,50.34
2018-08-06T09:46:56.398Z,52.92
2018-08-06T09:47:56.305Z,49.66
2018-08-06T09:48:56.228Z,48.90
2018-08-06T09:49:56.174Z,48.71
2018-08-06T09:50:56.075Z,48.93
2018-08-06T09:51:56.013Z,49.56
2018-08-06T09:52:55.918Z,50.48
2018-08-06T09:53:55.840Z,49.95
2018-08-06T09:54:55.762Z,48.02
2018-08-06T09:55:55.685Z,48.05
2018-08-06T09:56:55.626Z,46.29
2018-08-06T09:57:55.532Z,46.80
2018-08-06T09:58:55.453Z,44.73
2018-08-06T09:59:55.379Z,45.87
2018-08-06T10:00:55.300Z,46.04
2018-08-06T10:01:55.247Z,45.95
2018-08-06T10:02:55.146Z,47.44
2018-08-06T10:03:55.072Z,48.61
2018-08-06T10:04:54.991Z,46.53
2018-08-06T10:05:55.132Z,44.95
2018-08-06T10:06:54.855Z,45.36
2018-08-06T10:07:54.761Z,45.83
2018-08-06T10:08:54.685Z,44.85
2018-08-06T10:09:54.608Z,47.22
2018-08-06T10:10:54.533Z,45.41
2018-08-06T10:11:54.480Z,44.73
2018-08-06T10:12:54.395Z,44.90
2018-08-06T10:13:54.312Z,44.34
2018-08-06T10:14:54.224Z,44.46
2018-08-06T10:15:54.150Z,44.78
2018-08-06T10:16:54.072Z,46.73
2018-08-06T10:17:54.009Z,46.92
2018-08-06T10:18:53.965Z,46.61
2018-08-06T10:19:53.841Z,46.51
2018-08-06T10:20:53.763Z,46.49
2018-08-06T10:21:53.687Z,46.51
2018-08-06T10:22:53.628Z,46.80
2018-08-06T10:23:53.535Z,45.95
2018-08-06T10:24:53.457Z,47.39
2018-08-06T10:25:53.380Z,47.61
2018-08-06T10:26:53.318Z,48.44
2018-08-06T10:27:53.244Z,48.19
2018-08-06T10:28:53.149Z,46.70
2018-08-06T10:29:53.082Z,44.70
2018-08-06T10:30:52.999Z,45.09
2018-08-06T10:31:52.924Z,44.41
2018-08-06T10:32:52.859Z,44.51
2018-08-06T10:33:52.767Z,45.54
2018-08-06T10:34:52.691Z,44.64
2018-08-06T10:35:52.614Z,45.51
2018-08-06T10:36:52.545Z,45.49
2018-08-06T10:37:52.476Z,45.90
2018-08-06T10:38:52.398Z,46.02
2018-08-06T10:39:52.307Z,44.95
2018-08-06T10:40:52.229Z,46.04
2018-08-06T10:41:52.153Z,45.03
2018-08-06T10:42:52.102Z,44.76
2018-08-06T10:43:51.999Z,45.56
2018-08-06T10:44:51.924Z,46.66
2018-08-06T10:45:51.847Z,48.02
2018-08-06T10:46:51.768Z,46.29
2018-08-06T10:47:51.725Z,43.69
2018-08-06T10:48:51.616Z,44.41
2018-08-06T10:49:51.538Z,44.12
2018-08-06T10:50:51.466Z,43.80
2018-08-06T10:51:51.387Z,45.25
2018-08-06T10:52:51.325Z,45.75
2018-08-06T10:53:51.334Z,47.05
2018-08-06T10:54:51.157Z,44.51
2018-08-06T10:55:51.078Z,44.07
2018-08-06T10:56:51.000Z,45.44
2018-08-06T10:57:50.925Z,45.61
2018-08-06T10:58:50.861Z,45.25
2018-08-06T10:59:50.770Z,45.44
2018-08-06T11:00:50.798Z,45.56
2018-08-06T11:01:50.620Z,43.43
2018-08-06T11:02:50.614Z,43.49
2018-08-06T11:03:50.480Z,45.73
2018-08-06T11:04:50.385Z,44.68
2018-08-06T11:05:50.308Z,45.31
2018-08-06T11:06:50.231Z,46.00
2018-08-06T11:07:50.268Z,46.11
2018-08-06T11:08:50.100Z,44.77
2018-08-06T11:09:50.000Z,46.36
2018-08-06T11:10:49.924Z,44.98
2018-08-06T11:11:49.848Z,45.76
2018-08-06T11:12:49.777Z,48.09
2018-08-06T11:13:49.812Z,45.94
2018-08-06T11:14:49.620Z,43.13
2018-08-06T11:15:49.541Z,43.03
2018-08-06T11:16:49.463Z,45.10
2018-08-06T11:17:49.393Z,43.54
2018-08-06T11:18:49.325Z,45.32
2018-08-06T11:19:49.237Z,45.91
2018-08-06T11:20:49.160Z,42.41
2018-08-06T11:21:49.083Z,43.98
2018-08-06T11:22:49.009Z,41.25
2018-08-06T11:23:48.948Z,41.15
2018-08-06T11:24:48.852Z,38.21
2018-08-06T11:25:48.778Z,40.17
2018-08-06T11:26:48.704Z,38.68
2018-08-06T11:27:48.729Z,40.95
2018-08-06T11:28:48.564Z,39.35
2018-08-06T11:29:48.475Z,38.14
2018-08-06T11:30:48.402Z,39.59
2018-08-06T11:31:48.322Z,39.57
2018-08-06T11:32:48.284Z,42.07
2018-08-06T11:33:48.188Z,41.97
2018-08-06T11:34:48.201Z,41.09
2018-08-06T11:35:48.026Z,41.80
2018-08-06T11:36:47.977Z,41.11
2018-08-06T11:37:47.874Z,41.64
2018-08-06T11:38:47.817Z,42.25
2018-08-06T11:39:47.716Z,40.90
2018-08-06T11:40:47.638Z,39.41
2018-08-06T11:41:47.563Z,40.50
2018-08-06T11:42:47.486Z,42.76
2018-08-06T11:43:47.412Z,39.54
2018-08-06T11:44:47.349Z,37.87
2018-08-06T11:45:47.259Z,38.71
2018-08-06T11:46:47.183Z,41.74
2018-08-06T11:47:47.108Z,39.70
2018-08-06T11:48:47.045Z,39.72
2018-08-06T11:49:46.986Z,40.82
2018-08-06T11:50:46.881Z,38.47
2018-08-06T11:51:46.804Z,36.71
2018-08-06T11:52:46.727Z,39.64
2018-08-06T11:53:46.652Z,41.99
2018-08-06T11:54:46.592Z,43.48
2018-08-06T11:55:46.501Z,39.62
2018-08-06T11:56:46.596Z,38.14
2018-08-06T11:57:46.349Z,37.37
2018-08-06T11:58:46.278Z,38.73
2018-08-06T11:59:46.215Z,38.79
2018-08-06T12:00:46.122Z,39.94
2018-08-06T12:01:46.061Z,40.74
2018-08-06T12:02:45.973Z,40.56
2018-08-06T12:03:45.895Z,40.41
2018-08-06T12:04:45.856Z,40.43
2018-08-06T12:05:45.743Z,39.18
2018-08-06T12:06:45.669Z,40.53
2018-08-06T12:07:45.592Z,39.75
2018-08-06T12:08:45.516Z,39.57
2018-08-06T12:09:45.441Z,39.18
2018-08-06T12:10:45.377Z,36.94
2018-08-06T12:11:45.288Z,36.67
2018-08-06T12:12:45.211Z,36.69
2018-08-06T12:13:45.182Z,37.43
2018-08-06T12:14:45.060Z,38.59
2018-08-06T12:15:45.023Z,39.00
2018-08-06T12:16:44.907Z,37.63
2018-08-06T12:17:44.831Z,37.24
2018-08-06T12:18:44.769Z,38.43
2018-08-06T12:19:44.681Z,36.10
2018-08-06T12:20:44.621Z,37.08
2018-08-06T12:21:44.528Z,37.19
2018-08-06T12:22:44.450Z,39.54
2018-08-06T12:23:44.374Z,39.66
2018-08-06T12:24:44.317Z,38.78
2018-08-06T12:25:44.287Z,39.94
2018-08-06T12:26:44.147Z,41.00
2018-08-06T12:27:44.074Z,39.64
2018-08-06T12:28:43.994Z,36.80
2018-08-06T12:29:43.920Z,39.27
2018-08-06T12:30:43.860Z,41.89
2018-08-06T12:31:43.770Z,41.89
2018-08-06T12:32:43.690Z,39.88
2018-08-06T12:33:43.617Z,38.21
2018-08-06T12:34:43.566Z,39.96
2018-08-06T12:35:43.492Z,39.19
2018-08-06T12:36:43.388Z,38.21
2018-08-06T12:37:43.314Z,40.95
2018-08-06T12:38:43.235Z,39.78
2018-08-06T12:39:43.165Z,39.61
2018-08-06T12:40:43.100Z,42.15
2018-08-06T12:41:43.009Z,40.56
2018-08-06T12:42:42.941Z,39.75
2018-08-06T12:43:42.862Z,38.77
2018-08-06T12:44:42.793Z,39.06
2018-08-06T12:45:42.723Z,40.53
2018-08-06T12:46:42.631Z,40.60
2018-08-06T12:47:42.555Z,40.35
2018-08-06T12:48:42.478Z,39.57
2018-08-06T12:49:42.402Z,39.10
2018-08-06T12:50:42.458Z,37.43
2018-08-06T12:51:42.282Z,37.54
2018-08-06T12:52:42.173Z,37.04
2018-08-06T12:53:42.098Z,37.35
2018-08-06T12:54:42.023Z,39.39
2018-08-06T12:55:41.946Z,39.29